Time;durP1;ratioP1;P1;durP2;ratioP2;P2;SDS_P1;SDS_P2;PMS_P1;PMS_P2;Temp;Humidity;BMP_temperature;BMP_pressure;BME280_temperature;BME280_humidity;BME280_pressure;Samples;Min_cycle;Max_cycle;Signal;HPM_P1;HPM_P2
2023/01/11 08:26:35;;;;;;;2.40;1.80;;;6.40;99.90;;;;;;5116825;27;20281;-79
2023/01/11 08:30:48;;;;;;;2.67;1.80;;;6.50;99.90;;;;;;5139805;27;20274;-82
2023/01/11 08:34:22;;;;;;;3.00;2.40;;;6.60;99.90;;;;;;5138773;27;20825;-80
2023/01/11 08:36:48;;;;;;;2.00;1.80;;;6.80;99.90;;;;;;5119611;28;20209;-80
2023/01/11 08:39:14;;;;;;;3.90;2.13;;;6.90;99.90;;;;;;5135973;28;20299;-80
2023/01/11 08:41:39;;;;;;;4.60;2.57;;;7.00;99.90;;;;;;5137141;28;20181;-80
2023/01/11 08:44:05;;;;;;;2.73;1.63;;;7.20;99.90;;;;;;5138396;27;20177;-79
2023/01/11 08:46:32;;;;;;;3.17;1.90;;;7.30;99.90;;;;;;5138120;27;20307;-80
2023/01/11 08:48:59;;;;;;;3.73;1.67;;;7.30;99.90;;;;;;5137506;28;20205;-80
2023/01/11 08:51:25;;;;;;;2.77;1.30;;;7.20;99.90;;;;;;5138669;27;20180;-80
2023/01/11 08:53:51;;;;;;;1.70;1.27;;;7.20;99.90;;;;;;5138493;27;20547;-80
2023/01/11 08:56:17;;;;;;;1.70;1.50;;;7.30;99.90;;;;;;5136448;28;20201;-80
2023/01/11 08:58:43;;;;;;;1.60;1.50;;;7.40;99.90;;;;;;5136326;28;20201;-80
2023/01/11 09:01:08;;;;;;;2.50;1.40;;;7.50;99.90;;;;;;5136136;28;20513;-80
2023/01/11 09:03:35;;;;;;;1.20;1.10;;;7.80;99.90;;;;;;5136123;28;20192;-80
2023/01/11 09:06:00;;;;;;;2.63;1.60;;;8.10;99.90;;;;;;5135450;28;20196;-80
2023/01/11 09:08:27;;;;;;;1.50;1.20;;;8.20;99.90;;;;;;5136089;28;20201;-80
2023/01/11 09:10:55;;;;;;;3.13;1.03;;;8.40;99.90;;;;;;5136135;28;20179;-79
2023/01/11 09:13:21;;;;;;;2.10;1.27;;;8.50;99.90;;;;;;5134667;27;20652;-79
2023/01/11 09:15:47;;;;;;;2.63;1.93;;;8.60;99.90;;;;;;5138307;27;20175;-78
2023/01/11 09:18:16;;;;;;;2.97;2.30;;;8.70;99.90;;;;;;5139347;28;20205;-79
2023/01/11 09:20:41;;;;;;;2.97;2.10;;;9.00;99.90;;;;;;5139238;27;20182;-80
2023/01/11 09:23:07;;;;;;;3.17;1.57;;;9.00;99.90;;;;;;5132842;28;20636;-79
2023/01/11 09:25:33;;;;;;;2.63;1.57;;;9.00;99.90;;;;;;5133593;27;20306;-78
2023/01/11 09:27:58;;;;;;;1.93;1.53;;;8.90;99.90;;;;;;5131541;28;20665;-79
2023/01/11 09:30:24;;;;;;;1.57;1.30;;;8.80;99.90;;;;;;5133474;27;20258;-79
2023/01/11 09:32:50;;;;;;;2.10;1.37;;;8.80;99.90;;;;;;5131932;28;20210;-79
2023/01/11 09:35:18;;;;;;;2.07;1.40;;;8.70;99.90;;;;;;5132818;27;20183;-79
2023/01/11 09:37:48;;;;;;;2.07;1.30;;;8.50;99.90;;;;;;5132227;27;20197;-79
2023/01/11 09:40:25;;;;;;;2.60;1.40;;;8.60;99.90;;;;;;5131828;27;20257;-79
2023/01/11 09:42:55;;;;;;;2.53;1.27;;;9.00;99.90;;;;;;5129827;28;20175;-80
2023/01/11 09:45:23;;;;;;;2.03;1.37;;;9.10;99.90;;;;;;5117916;28;20237;-80
2023/01/11 09:48:02;;;;;;;4.00;1.40;;;9.00;99.90;;;;;;5120698;28;20198;-80
2023/01/11 09:50:31;;;;;;;3.13;1.40;;;9.00;99.90;;;;;;5120868;28;20182;-79
2023/01/11 09:53:03;;;;;;;1.93;1.20;;;9.10;99.90;;;;;;5120631;28;20282;-81
2023/01/11 09:55:47;;;;;;;2.37;1.40;;;9.30;99.90;;;;;;5119298;28;20596;-80
2023/01/11 09:58:35;;;;;;;3.87;1.37;;;9.70;99.90;;;;;;5121507;28;20187;-79
2023/01/11 10:01:23;;;;;;;1.77;1.30;;;10.00;99.90;;;;;;5120362;28;20245;-79
2023/01/11 10:04:31;;;;;;;3.03;1.80;;;10.00;99.90;;;;;;5120328;28;20664;-80
2023/01/11 10:07:03;;;;;;;1.87;1.37;;;9.80;99.90;;;;;;5120816;28;20179;-81
2023/01/11 10:09:40;;;;;;;1.80;1.27;;;9.50;99.90;;;;;;5120164;28;20172;-80
2023/01/11 10:12:25;;;;;;;1.27;1.03;;;9.60;99.90;;;;;;5120262;28;20640;-80
2023/01/11 10:14:51;;;;;;;2.53;1.30;;;10.00;99.90;;;;;;5120411;28;20217;-80
2023/01/11 10:17:41;;;;;;;4.13;1.33;;;10.20;99.90;;;;;;5119893;28;20563;-80
2023/01/11 10:20:26;;;;;;;1.60;1.20;;;10.30;99.90;;;;;;5120591;28;20217;-80
2023/01/11 10:22:59;;;;;;;1.30;1.10;;;10.10;99.90;;;;;;5120523;28;20195;-80
2023/01/11 10:25:32;;;;;;;2.43;1.93;;;9.90;99.90;;;;;;5122208;28;20533;-79
2023/01/11 10:28:05;;;;;;;4.63;3.50;;;9.70;99.90;;;;;;5119287;28;20199;-80
2023/01/11 10:34:15;;;;;;;2.70;1.93;;;9.40;99.90;;;;;;5120986;28;20215;-79
2023/01/11 10:37:22;;;;;;;2.67;1.60;;;9.40;99.90;;;;;;5120496;28;20231;-80
2023/01/11 10:40:39;;;;;;;2.40;1.50;;;9.40;99.90;;;;;;5120575;27;20172;-79
2023/01/11 10:43:21;;;;;;;2.23;1.50;;;9.30;99.90;;;;;;5118810;28;20167;-79
2023/01/11 10:45:56;;;;;;;1.80;1.50;;;9.30;99.90;;;;;;5120100;27;20175;-80
2023/01/11 10:48:32;;;;;;;1.80;1.30;;;9.40;99.90;;;;;;5118955;28;20205;-79
2023/01/11 10:50:57;;;;;;;3.00;1.80;;;9.50;99.90;;;;;;5120074;28;20185;-79
2023/01/11 10:53:54;;;;;;;2.13;1.47;;;9.60;99.90;;;;;;5120318;28;20672;-80
2023/01/11 10:56:24;;;;;;;4.27;1.40;;;9.70;99.90;;;;;;5119538;28;20194;-81
2023/01/11 10:59:15;;;;;;;4.47;2.30;;;9.80;99.90;;;;;;5121053;28;20290;-81
2023/01/11 11:02:15;;;;;;;4.57;1.93;;;9.90;99.90;;;;;;5119960;28;20172;-81
2023/01/11 11:05:19;;;;;;;1.80;1.57;;;10.10;99.90;;;;;;5100950;28;20176;-82
2023/01/11 11:07:54;;;;;;;1.30;1.10;;;10.20;99.90;;;;;;5097834;28;20564;-81
2023/01/11 11:10:25;;;;;;;1.20;1.10;;;10.30;99.90;;;;;;5099349;28;20270;-81
2023/01/11 11:13:03;;;;;;;0.83;0.80;;;10.30;99.90;;;;;;5099239;28;20210;-80
2023/01/11 11:15:49;;;;;;;0.80;0.80;;;10.40;99.90;;;;;;5098909;28;20200;-81
2023/01/11 11:18:15;;;;;;;1.47;1.00;;;10.40;99.90;;;;;;5098586;28;20199;-81
2023/01/11 11:20:42;;;;;;;1.00;0.90;;;10.40;99.90;;;;;;5099255;28;20173;-80
2023/01/11 11:23:14;;;;;;;0.60;0.60;;;10.40;99.90;;;;;;5100175;28;20172;-81
2023/01/11 11:25:45;;;;;;;0.50;0.50;;;10.40;99.90;;;;;;5099065;28;20229;-82
2023/01/11 11:28:13;;;;;;;0.80;0.60;;;10.30;99.90;;;;;;5099635;28;20673;-80
2023/01/11 11:30:42;;;;;;;1.83;0.80;;;10.20;99.90;;;;;;5098394;28;20180;-81
2023/01/11 11:33:17;;;;;;;0.73;0.60;;;10.20;99.90;;;;;;5099305;28;20208;-81
2023/01/11 11:35:45;;;;;;;0.70;0.60;;;10.20;99.90;;;;;;5099889;28;20175;-80
2023/01/11 11:38:25;;;;;;;0.83;0.70;;;10.20;99.90;;;;;;5100686;28;20201;-82
2023/01/11 11:41:04;;;;;;;0.93;0.83;;;10.20;99.90;;;;;;5102158;28;20187;-81
2023/01/11 11:43:32;;;;;;;1.83;0.80;;;10.20;99.90;;;;;;5099719;28;20523;-81
2023/01/11 11:46:04;;;;;;;1.00;0.90;;;10.20;99.90;;;;;;5101706;28;20239;-81
2023/01/11 11:48:32;;;;;;;0.80;0.80;;;10.20;99.90;;;;;;5100497;28;20223;-81
2023/01/11 11:51:05;;;;;;;1.30;0.70;;;10.20;99.90;;;;;;5098663;28;20180;-81
2023/01/11 11:53:45;;;;;;;0.60;0.60;;;10.20;99.90;;;;;;5099615;28;20207;-81
2023/01/11 11:56:26;;;;;;;0.70;0.60;;;10.20;99.90;;;;;;5098469;28;20168;-80
2023/01/11 11:58:53;;;;;;;0.90;0.80;;;10.20;99.90;;;;;;5097044;28;20200;-82
2023/01/11 12:01:31;;;;;;;1.20;1.00;;;10.20;99.90;;;;;;5099123;28;20536;-80
2023/01/11 12:04:00;;;;;;;2.20;1.00;;;10.20;99.90;;;;;;5098525;28;20183;-81
2023/01/11 12:06:28;;;;;;;0.70;0.60;;;10.30;99.90;;;;;;5099133;28;20207;-82
2023/01/11 12:08:56;;;;;;;0.63;0.60;;;10.30;99.90;;;;;;5097367;28;20257;-82
2023/01/11 12:11:33;;;;;;;0.80;0.70;;;10.30;99.90;;;;;;5099019;28;20293;-82
2023/01/11 12:14:16;;;;;;;1.87;0.87;;;10.30;99.90;;;;;;5098710;28;20244;-80
2023/01/11 12:16:44;;;;;;;0.60;0.60;;;10.40;99.90;;;;;;5098943;28;20517;-80
2023/01/11 12:19:35;;;;;;;2.33;0.70;;;10.40;99.90;;;;;;5098417;28;20624;-83
2023/01/11 12:22:14;;;;;;;0.87;0.80;;;10.40;99.90;;;;;;5100635;28;20168;-81
2023/01/11 12:24:39;;;;;;;0.73;0.57;;;10.30;99.90;;;;;;5099015;28;20179;-81
2023/01/11 12:27:29;;;;;;;1.07;0.80;;;10.30;99.90;;;;;;5098771;28;20205;-81
2023/01/11 12:30:32;;;;;;;1.13;1.03;;;10.30;99.90;;;;;;5098554;28;20168;-81
2023/01/11 12:32:58;;;;;;;0.77;0.60;;;10.30;99.90;;;;;;5094224;28;20234;-82
2023/01/11 12:35:42;;;;;;;0.70;0.60;;;10.30;99.90;;;;;;5097793;28;20632;-80
2023/01/11 12:38:19;;;;;;;1.13;0.70;;;10.20;99.90;;;;;;5100037;28;20199;-81
2023/01/11 12:41:13;;;;;;;0.80;0.70;;;10.10;99.90;;;;;;5098385;28;20224;-80
2023/01/11 12:43:53;;;;;;;0.60;0.60;;;10.10;99.90;;;;;;5098604;28;20172;-80
2023/01/11 12:46:24;;;;;;;0.53;0.50;;;10.10;99.90;;;;;;5092952;28;20633;-81
2023/01/11 12:48:49;;;;;;;0.90;0.70;;;10.00;99.90;;;;;;5095659;28;20279;-81
2023/01/11 12:51:53;;;;;;;0.87;0.70;;;10.00;99.90;;;;;;5098842;28;20199;-80
2023/01/11 12:55:00;;;;;;;0.50;0.50;;;9.90;99.90;;;;;;5099241;28;20610;-83
2023/01/11 12:57:59;;;;;;;3.97;2.23;;;9.80;99.90;;;;;;5098143;28;20194;-81
2023/01/11 13:00:40;;;;;;;7.17;4.10;;;9.80;99.90;;;;;;5098963;28;20180;-81
2023/01/11 13:03:34;;;;;;;3.20;2.03;;;9.70;99.90;;;;;;5097226;28;20255;-82
2023/01/11 13:06:18;;;;;;;1.67;1.30;;;9.70;99.90;;;;;;5098519;28;20176;-82
2023/01/11 13:09:12;;;;;;;1.00;0.90;;;9.60;99.90;;;;;;5100494;28;20192;-80
2023/01/11 13:11:54;;;;;;;1.63;1.40;;;9.50;99.90;;;;;;5098866;28;20571;-80
2023/01/11 13:14:51;;;;;;;0.87;0.77;;;9.50;99.90;;;;;;5098656;28;20187;-82
